Time;durP1;ratioP1;P1;durP2;ratioP2;P2;SDS_P1;SDS_P2;PMS_P1;PMS_P2;Temp;Humidity;BMP_temperature;BMP_pressure;BME280_temperature;BME280_humidity;BME280_pressure;Samples;Min_cycle;Max_cycle;Signal;HPM_P1;HPM_P2
2022/05/18 00:01:47;;;;;;;23.50;17.57;;;;;;;17.81;100.00;102119.19;5009936;28;20195;-90
2022/05/18 00:04:13;;;;;;;22.37;17.07;;;;;;;17.64;100.00;102135.09;5011813;28;20212;-88
2022/05/18 00:06:38;;;;;;;22.40;16.73;;;;;;;17.84;100.00;102141.31;5014199;28;20212;-89
2022/05/18 00:09:04;;;;;;;19.83;16.20;;;;;;;17.75;100.00;102144.47;5014155;28;20209;-90
2022/05/18 00:11:31;;;;;;;21.17;16.90;;;;;;;17.60;100.00;102109.44;5014004;28;20191;-90
2022/05/18 00:13:57;;;;;;;20.90;17.43;;;;;;;17.80;100.00;102133.81;5010029;28;20196;-89
2022/05/18 00:16:26;;;;;;;19.30;17.07;;;;;;;17.45;100.00;102100.75;5009025;28;20441;-90
2022/05/18 00:18:52;;;;;;;21.27;16.47;;;;;;;17.80;100.00;102145.50;5011394;28;20217;-90
2022/05/18 00:21:17;;;;;;;22.20;17.73;;;;;;;17.63;100.00;102120.69;5012523;28;20939;-90
2022/05/18 00:23:44;;;;;;;23.17;17.60;;;;;;;17.78;100.00;102136.75;5008297;28;20478;-90
2022/05/18 00:26:09;;;;;;;22.10;17.70;;;;;;;17.65;100.00;102136.78;5023455;28;20189;-89
2022/05/18 00:28:35;;;;;;;20.97;18.43;;;;;;;16.96;100.00;102037.06;5012420;28;20526;-90
2022/05/18 00:31:01;;;;;;;23.20;17.37;;;;;;;17.62;100.00;102137.22;5010693;28;20200;-89
2022/05/18 00:33:27;;;;;;;22.07;17.13;;;;;;;17.65;100.00;102131.34;5011963;28;20200;-90
2022/05/18 00:35:53;;;;;;;19.07;16.90;;;;;;;17.07;100.00;102058.09;5008465;28;20451;-89
2022/05/18 00:38:19;;;;;;;22.03;17.33;;;;;;;17.40;100.00;102110.34;5015676;28;20451;-90
2022/05/18 00:40:49;;;;;;;22.33;18.40;;;;;;;17.57;100.00;102128.88;5013225;28;20566;-90
2022/05/18 00:43:42;;;;;;;21.87;17.87;;;;;;;17.00;100.00;102055.38;5010115;28;20184;-91
2022/05/18 00:46:14;;;;;;;24.23;18.10;;;;;;;17.48;100.00;102131.00;5001255;28;20439;-89
2022/05/18 00:48:40;;;;;;;24.13;17.60;;;;;;;17.48;100.00;102128.28;5006608;28;20472;-89
2022/05/18 00:51:29;;;;;;;23.63;17.23;;;;;;;16.88;100.00;102011.84;5010501;28;20807;-89
2022/05/18 00:54:09;;;;;;;27.80;19.07;;;;;;;17.54;100.00;102119.28;5008799;28;20436;-90
2022/05/18 00:57:08;;;;;;;23.43;17.30;;;;;;;17.04;100.00;102069.34;5024648;28;20441;-90
2022/05/18 00:59:36;;;;;;;20.50;18.20;;;;;;;17.43;100.00;102121.81;5010885;28;20479;-90
2022/05/18 01:02:03;;;;;;;23.83;19.03;;;;;;;17.10;100.00;102058.50;5008829;28;20440;-89
2022/05/18 01:04:29;;;;;;;22.77;18.77;;;;;;;17.21;100.00;102100.38;5012857;28;20452;-90
2022/05/18 01:07:07;;;;;;;22.07;18.00;;;;;;;17.25;100.00;102087.25;5012409;28;20436;-90
2022/05/18 01:09:40;;;;;;;20.77;18.03;;;;;;;17.27;100.00;102123.09;5013022;28;20222;-90
2022/05/18 01:12:08;;;;;;;19.83;17.40;;;;;;;17.34;100.00;102123.94;5009466;28;20527;-90
2022/05/18 01:14:57;;;;;;;19.77;16.73;;;;;;;17.01;100.00;102086.03;5012837;28;20526;-90
2022/05/18 01:19:55;;;;;;;23.17;18.97;;;;;;;17.32;100.00;102117.88;4998434;28;20492;-74
2022/05/18 01:22:38;;;;;;;26.20;18.00;;;;;;;17.34;100.00;102141.03;5005986;28;20451;-74
2022/05/18 01:25:44;;;;;;;24.63;18.80;;;;;;;17.40;100.00;102139.34;5006567;28;20514;-74
2022/05/18 01:28:10;;;;;;;22.53;19.00;;;;;;;17.17;100.00;102131.69;4999555;28;20559;-74
2022/05/18 01:30:42;;;;;;;19.57;17.40;;;;;;;16.96;100.00;102111.06;5008778;28;20483;-75
2022/05/18 01:33:09;;;;;;;20.03;16.93;;;;;;;17.12;100.00;102136.91;5007755;28;20486;-74
2022/05/18 01:35:38;;;;;;;26.33;19.70;;;;;;;17.32;100.00;102145.00;5006002;28;20952;-74
2022/05/18 01:38:06;;;;;;;20.43;17.43;;;;;;;17.15;100.00;102141.91;5006116;28;20456;-74
2022/05/18 01:40:37;;;;;;;19.40;17.13;;;;;;;17.13;100.00;102144.00;5006643;28;20464;-74
2022/05/18 01:43:12;;;;;;;20.93;17.30;;;;;;;17.20;100.00;102139.38;5006232;28;20447;-75
2022/05/18 01:45:37;;;;;;;22.50;18.00;;;;;;;16.84;100.00;102115.47;5005076;28;20868;-74
2022/05/18 01:48:15;;;;;;;20.83;17.37;;;;;;;17.05;100.00;102150.47;5005231;28;20550;-73
2022/05/18 01:50:41;;;;;;;23.03;18.13;;;;;;;17.02;100.00;102139.22;5006901;28;20189;-74
2022/05/18 01:53:08;;;;;;;21.27;17.63;;;;;;;16.92;100.00;102140.47;5004237;28;20436;-73
2022/05/18 01:55:34;;;;;;;19.60;17.47;;;;;;;16.70;100.00;102093.75;5006310;28;20476;-73
2022/05/18 01:58:00;;;;;;;20.80;16.70;;;;;;;16.93;100.00;102134.00;5006712;28;20463;-73
2022/05/18 02:00:28;;;;;;;22.60;19.00;;;;;;;16.86;100.00;102113.38;5008244;28;20534;-73
2022/05/18 02:02:53;;;;;;;20.43;17.27;;;;;;;16.80;100.00;102098.78;5008217;28;20446;-73
2022/05/18 02:05:19;;;;;;;18.60;16.03;;;;;;;16.81;100.00;102088.78;5007550;28;20456;-73
2022/05/18 02:07:44;;;;;;;20.07;17.07;;;;;;;17.13;100.00;102139.41;5003579;28;20810;-73
2022/05/18 02:10:11;;;;;;;24.30;18.30;;;;;;;16.62;100.00;102064.16;5005007;28;20189;-73
2022/05/18 02:12:36;;;;;;;20.03;16.90;;;;;;;16.86;100.00;102113.38;4998564;28;20259;-73
2022/05/18 02:15:03;;;;;;;23.57;17.60;;;;;;;16.90;100.00;102123.59;5006127;28;20440;-73
2022/05/18 02:17:30;;;;;;;20.20;16.97;;;;;;;16.36;100.00;102046.03;5005100;28;20594;-73
2022/05/18 02:19:57;;;;;;;21.20;17.00;;;;;;;16.76;100.00;102088.56;5002975;28;21031;-73
2022/05/18 02:22:23;;;;;;;20.00;16.20;;;;;;;17.12;100.00;102128.75;5003924;28;20458;-73
2022/05/18 02:24:48;;;;;;;21.90;16.73;;;;;;;16.69;100.00;102083.13;5004400;28;20957;-73
2022/05/18 02:27:14;;;;;;;21.67;16.93;;;;;;;16.58;100.00;102043.97;5006169;28;21449;-73
2022/05/18 02:29:40;;;;;;;24.43;17.30;;;;;;;16.77;100.00;102073.97;5006293;28;20258;-73
2022/05/18 02:32:05;;;;;;;19.60;16.27;;;;;;;16.66;100.00;102051.03;5003654;28;20189;-73
2022/05/18 02:34:31;;;;;;;18.97;15.87;;;;;;;16.52;100.00;102044.81;5003836;28;20665;-73
2022/05/18 02:36:56;;;;;;;20.70;16.43;;;;;;;16.93;100.00;102089.81;5004552;28;20263;-73
2022/05/18 02:39:21;;;;;;;16.67;14.83;;;;;;;16.42;100.00;101995.63;5006253;28;20204;-73
2022/05/18 02:41:48;;;;;;;20.10;14.70;;;;;;;17.03;100.00;102106.47;5006942;28;20187;-73
2022/05/18 02:44:14;;;;;;;15.77;13.87;;;;;;;16.67;100.00;102058.97;5006506;28;20190;-74
2022/05/18 02:46:39;;;;;;;14.87;13.37;;;;;;;16.61;100.00;102053.56;5006185;28;20792;-73
2022/05/18 02:49:05;;;;;;;15.80;13.90;;;;;;;17.04;100.00;102110.00;5006167;28;20299;-73
2022/05/18 02:51:30;;;;;;;15.70;12.73;;;;;;;16.83;100.00;102095.66;5005689;28;20181;-74
2022/05/18 02:53:56;;;;;;;16.93;14.30;;;;;;;17.07;100.00;102104.19;5002517;28;20276;-74
2022/05/18 02:56:26;;;;;;;17.90;15.10;;;;;;;16.62;100.00;102028.13;5004131;28;20678;-74
2022/05/18 02:58:56;;;;;;;17.33;13.70;;;;;;;17.14;100.00;102097.69;5006497;28;20986;-73
2022/05/18 03:01:23;;;;;;;20.17;12.73;;;;;;;16.98;100.00;102105.44;5003056;28;20487;-74
2022/05/18 03:03:49;;;;;;;16.20;12.73;;;;;;;16.90;100.00;102103.78;5006701;28;20805;-73
2022/05/18 03:06:17;;;;;;;13.70;12.30;;;;;;;16.89;100.00;102104.81;5004549;28;20448;-73
2022/05/18 03:08:44;;;;;;;14.57;12.97;;;;;;;16.81;100.00;102116.72;5005870;28;20562;-74
2022/05/18 03:11:10;;;;;;;17.00;12.10;;;;;;;16.53;100.00;102051.06;5004554;28;20443;-73
2022/05/18 03:13:35;;;;;;;14.33;11.77;;;;;;;16.60;100.00;102057.28;5006032;28;20428;-73
2022/05/18 03:16:01;;;;;;;15.80;12.80;;;;;;;16.89;100.00;102113.81;5004483;28;20439;-73
2022/05/18 03:18:27;;;;;;;15.50;11.87;;;;;;;16.74;100.00;102086.03;5006533;28;20274;-74
2022/05/18 03:23:37;;;;;;;16.10;11.80;;;;;;;16.75;100.00;102086.88;5004451;28;20615;-74
2022/05/18 03:26:12;;;;;;;13.53;11.80;;;;;;;16.68;100.00;102084.16;5000190;28;20440;-74
2022/05/18 03:28:43;;;;;;;15.00;12.50;;;;;;;16.86;100.00;102103.34;5004995;28;20224;-73
2022/05/18 03:31:10;;;;;;;11.97;10.77;;;;;;;16.83;100.00;102111.91;5003972;28;20435;-73
2022/05/18 03:33:37;;;;;;;14.40;11.57;;;;;;;16.76;100.00;102111.09;5007448;28;20428;-74
2022/05/18 03:36:03;;;;;;;12.93;11.37;;;;;;;16.79;100.00;102085.44;5005768;28;20516;-73
2022/05/18 03:38:29;;;;;;;18.83;11.20;;;;;;;16.24;100.00;102023.34;5002663;28;20490;-74
2022/05/18 03:40:55;;;;;;;12.93;10.50;;;;;;;16.67;100.00;102094.19;5002958;28;20924;-73
2022/05/18 03:43:22;;;;;;;12.70;10.43;;;;;;;16.58;100.00;102105.44;5005035;28;20204;-73
2022/05/18 03:45:47;;;;;;;13.50;11.30;;;;;;;16.11;100.00;101999.78;5006374;28;20444;-74
2022/05/18 03:48:14;;;;;;;13.40;11.43;;;;;;;16.25;100.00;102023.13;5005529;28;20476;-73
2022/05/18 03:50:42;;;;;;;15.77;11.70;;;;;;;16.67;100.00;102110.44;5005880;28;20184;-73
2022/05/18 03:53:08;;;;;;;13.47;9.97;;;;;;;16.70;100.00;102109.19;5003694;28;20451;-74
2022/05/18 03:55:34;;;;;;;11.57;10.40;;;;;;;16.64;100.00;102107.31;4999653;28;20492;-73
2022/05/18 03:58:00;;;;;;;12.00;10.30;;;;;;;16.83;100.00;102111.06;5004695;28;20463;-74
2022/05/18 04:00:26;;;;;;;12.30;10.03;;;;;;;16.50;100.00;102088.34;5004625;28;20436;-74
2022/05/18 04:02:51;;;;;;;15.57;8.60;;;;;;;16.58;100.00;102110.84;5006926;28;20238;-74
2022/05/18 04:05:20;;;;;;;9.83;8.83;;;;;;;16.54;100.00;102090.63;5003326;28;20272;-74
2022/05/18 04:07:45;;;;;;;10.60;9.30;;;;;;;16.19;100.00;102036.66;5003486;28;20205;-74
2022/05/18 04:10:11;;;;;;;11.40;9.13;;;;;;;16.40;100.00;102050.03;5003457;28;20865;-74
2022/05/18 04:12:36;;;;;;;12.20;9.80;;;;;;;16.65;100.00;102098.13;5004547;28;20189;-74
2022/05/18 04:15:03;;;;;;;12.97;9.63;;;;;;;16.71;100.00;102108.13;4998808;28;20189;-74
2022/05/18 04:17:29;;;;;;;11.77;8.40;;;;;;;16.28;100.00;102051.66;5005997;28;20197;-74
2022/05/18 04:19:54;;;;;;;10.80;8.10;;;;;;;16.59;100.00;102118.75;5004302;28;20818;-74
2022/05/18 04:22:21;;;;;;;9.60;8.60;;;;;;;16.01;100.00;102002.09;5004320;28;20193;-74
2022/05/18 04:24:46;;;;;;;10.20;7.67;;;;;;;16.03;100.00;102043.31;5006843;28;20196;-74
2022/05/18 04:27:12;;;;;;;9.30;7.30;;;;;;;15.71;100.00;101969.19;5001025;28;20444;-73
2022/05/18 04:29:38;;;;;;;10.33;7.50;;;;;;;16.80;100.00;102112.31;5004410;28;20213;-73
2022/05/18 04:32:05;;;;;;;10.63;7.37;;;;;;;16.85;100.00;102104.41;5004048;28;20535;-74
2022/05/18 04:34:31;;;;;;;9.67;7.93;;;;;;;16.46;100.00;102054.59;5007918;28;20467;-74
2022/05/18 04:36:56;;;;;;;12.83;7.37;;;;;;;16.59;100.00;102098.97;5007332;28;20439;-74
2022/05/18 04:39:21;;;;;;;9.57;7.07;;;;;;;16.85;100.00;102109.00;5003022;28;20977;-74
2022/05/18 04:41:47;;;;;;;8.60;7.70;;;;;;;16.60;100.00;102066.25;5008801;28;20219;-74
2022/05/18 04:44:13;;;;;;;7.60;6.53;;;;;;;16.78;100.00;102079.22;5007237;28;20188;-74
2022/05/18 04:46:41;;;;;;;10.00;7.30;;;;;;;16.54;100.00;102052.72;5002132;28;20642;-74
2022/05/18 04:49:07;;;;;;;8.77;7.47;;;;;;;16.85;100.00;102098.97;5006552;28;20227;-73
2022/05/18 04:51:33;;;;;;;8.33;6.37;;;;;;;16.49;100.00;102039.81;5000668;28;20440;-74
2022/05/18 04:53:59;;;;;;;10.87;7.37;;;;;;;16.58;100.00;102040.44;5003853;28;20868;-74
2022/05/18 04:56:24;;;;;;;10.43;7.00;;;;;;;16.80;100.00;102082.50;5004582;28;20451;-74
2022/05/18 04:58:51;;;;;;;11.00;7.13;;;;;;;16.46;100.00;102032.94;5004126;28;20879;-74
2022/05/18 05:01:17;;;;;;;9.27;6.40;;;;;;;16.71;100.00;102076.44;5003847;28;20184;-74
2022/05/18 05:03:42;;;;;;;7.70;6.30;;;;;;;16.41;100.00;102031.91;4995024;28;20486;-73
2022/05/18 05:06:08;;;;;;;9.23;6.63;;;;;;;17.03;100.00;102127.31;5008189;28;20444;-74
2022/05/18 05:08:37;;;;;;;8.13;6.40;;;;;;;16.95;100.00;102122.94;4996467;28;20319;-74
2022/05/18 05:11:05;;;;;;;10.70;6.67;;;;;;;17.05;100.00;102122.53;4999483;28;20185;-74
2022/05/18 05:13:32;;;;;;;11.33;7.00;;;;;;;17.16;100.00;102128.13;4999678;28;20444;-74
2022/05/18 05:16:08;;;;;;;7.30;6.60;;;;;;;17.01;100.00;102119.41;5001340;28;20444;-74
2022/05/18 05:18:34;;;;;;;9.63;6.27;;;;;;;16.43;100.00;102013.53;4998899;28;20837;-74
2022/05/18 05:21:00;;;;;;;7.17;5.50;;;;;;;17.26;100.00;102129.56;5003695;28;20447;-74
2022/05/18 05:23:26;;;;;;;8.33;6.13;;;;;;;16.66;100.00;102046.47;5003443;28;20185;-74
2022/05/18 05:25:52;;;;;;;6.57;5.60;;;;;;;17.04;100.00;102091.03;5006355;28;20208;-74
2022/05/18 05:28:19;;;;;;;10.60;6.40;;;;;;;16.68;100.00;102033.53;5009199;28;20463;-74
2022/05/18 05:30:44;;;;;;;9.07;6.70;;;;;;;17.20;100.00;102125.00;5011891;28;20451;-74
2022/05/18 05:33:11;;;;;;;11.80;7.30;;;;;;;16.91;100.00;102067.50;5004866;28;20467;-74
2022/05/18 05:35:40;;;;;;;9.53;7.40;;;;;;;16.48;100.00;101970.41;5010609;28;20264;-73
2022/05/18 05:38:05;;;;;;;7.80;6.13;;;;;;;16.86;100.00;102034.78;5008945;28;20925;-74
2022/05/18 05:40:31;;;;;;;5.80;5.20;;;;;;;16.44;100.00;101961.91;5000907;28;21007;-74
2022/05/18 05:42:56;;;;;;;9.87;6.37;;;;;;;17.46;100.00;102126.81;5006318;28;20254;-73
2022/05/18 05:45:21;;;;;;;8.20;6.40;;;;;;;17.49;100.00;102126.38;5004935;28;20296;-73
2022/05/18 05:47:47;;;;;;;8.20;6.50;;;;;;;16.53;100.00;101969.81;5008306;28;20236;-73
2022/05/18 05:50:13;;;;;;;7.73;6.60;;;;;;;17.59;100.00;102124.06;5006055;28;20194;-73
2022/05/18 05:52:39;;;;;;;7.10;5.73;;;;;;;17.18;100.00;102062.84;5002932;28;20189;-73
2022/05/18 05:55:05;;;;;;;8.23;6.00;;;;;;;17.53;100.00;102114.91;5007699;28;20450;-73
2022/05/18 05:57:30;;;;;;;6.30;4.90;;;;;;;17.59;100.00;102135.75;5003886;28;20188;-73
2022/05/18 05:59:55;;;;;;;9.33;6.20;;;;;;;17.68;100.00;102130.91;5006970;28;20665;-73
2022/05/18 06:02:22;;;;;;;8.20;5.67;;;;;;;17.31;100.00;102054.69;5007600;28;20231;-73
2022/05/18 06:04:47;;;;;;;6.43;5.60;;;;;;;17.23;100.00;102054.09;5010259;28;20185;-73
2022/05/18 06:07:13;;;;;;;6.97;5.57;;;;;;;17.71;100.00;102125.06;5008427;28;20436;-73
2022/05/18 06:09:39;;;;;;;9.80;6.10;;;;;;;17.52;100.00;102086.09;5008356;28;20216;-72
2022/05/18 06:12:05;;;;;;;9.27;6.27;;;;;;;17.87;100.00;102134.63;5004426;28;20468;-73
2022/05/18 06:14:32;;;;;;;7.97;5.83;;;;;;;17.78;100.00;102106.88;5007203;28;20808;-73
2022/05/18 06:16:57;;;;;;;7.73;6.30;;;;;;;17.84;100.00;102113.34;5004281;28;20189;-73
2022/05/18 06:19:22;;;;;;;10.50;6.07;;;;;;;17.50;100.00;102062.94;5004445;28;20472;-72
2022/05/18 06:21:49;;;;;;;10.07;6.37;;;;;;;17.99;100.00;102123.91;5007428;28;20593;-73
2022/05/18 06:24:15;;;;;;;8.43;6.27;;;;;;;17.92;100.00;102109.56;5007327;28;20227;-73
2022/05/18 06:26:44;;;;;;;9.27;6.20;;;;;;;18.05;100.00;102129.31;5005299;28;20435;-72
2022/05/18 06:29:10;;;;;;;7.87;5.90;;;;;;;18.13;100.00;102138.25;4998147;28;20280;-73
2022/05/18 06:31:36;;;;;;;7.40;5.60;;;;;;;18.16;100.00;102130.50;4999672;28;20912;-74
2022/05/18 06:34:02;;;;;;;8.17;6.30;;;;;;;18.20;100.00;102129.03;5004872;28;20440;-74
2022/05/18 06:36:28;;;;;;;7.30;5.50;;;;;;;18.30;100.00;102129.38;5005699;28;20191;-74
2022/05/18 06:38:53;;;;;;;10.57;5.47;;;;;;;18.24;100.00;102122.09;5005361;28;20847;-74
2022/05/18 06:41:21;;;;;;;11.23;6.50;;;;;;;17.80;100.00;102041.56;5008129;28;20639;-74
2022/05/18 06:44:02;;;;;;;8.37;5.70;;;;;;;18.10;100.00;102076.25;5006502;28;20231;-73
2022/05/18 06:46:35;;;;;;;8.13;5.33;;;;;;;17.77;100.00;102012.94;5007727;28;20948;-73
2022/05/18 06:49:02;;;;;;;7.53;5.70;;;;;;;18.41;100.00;102125.13;5005308;28;20490;-73
2022/05/18 06:51:31;;;;;;;11.60;6.50;;;;;;;18.41;100.00;102124.28;5005244;28;20444;-72
2022/05/18 06:53:57;;;;;;;9.47;6.47;;;;;;;17.86;100.00;102021.69;5006677;28;20447;-73
2022/05/18 06:56:26;;;;;;;15.60;7.47;;;;;;;18.27;100.00;102067.34;5006594;28;20436;-73
2022/05/18 06:58:52;;;;;;;8.63;6.50;;;;;;;18.51;100.00;102106.47;5002813;28;20483;-73
2022/05/18 07:01:18;;;;;;;11.33;6.63;;;;;;;18.02;100.00;102023.03;5006086;28;20469;-73
2022/05/18 07:03:44;;;;;;;7.33;5.77;;;;;;;18.68;100.00;102117.59;5005551;28;20490;-73
2022/05/18 07:06:10;;;;;;;7.67;6.20;;;;;;;18.30;100.00;102036.19;5005846;28;21178;-73
2022/05/18 07:08:37;;;;;;;9.30;5.60;;;;;;;18.80;100.00;102112.28;5004100;28;20468;-74
2022/05/18 07:11:03;;;;;;;7.20;6.30;;;;;;;18.56;100.00;102075.91;5005018;28;21004;-74
2022/05/18 07:13:33;;;;;;;10.90;6.37;;;;;;;18.82;100.00;102104.75;5006326;28;20819;-72
2022/05/18 07:15:59;;;;;;;9.30;6.67;;;;;;;18.91;100.00;102132.50;5002794;28;20464;-72
2022/05/18 07:18:29;;;;;;;12.23;6.17;;;;;;;18.75;100.00;102087.69;5005485;28;20463;-72
2022/05/18 07:20:58;;;;;;;12.20;6.93;;;;;;;18.78;100.00;102091.84;5005119;28;20532;-72
2022/05/18 07:23:25;;;;;;;9.77;8.00;;;;;;;18.99;100.00;102106.91;5006360;28;20432;-72
2022/05/18 07:25:55;;;;;;;11.50;7.50;;;;;;;19.09;100.00;102108.06;5004060;28;20454;-73
2022/05/18 07:28:22;;;;;;;9.17;7.30;;;;;;;18.85;100.00;102070.84;5006783;28;20480;-73
2022/05/18 07:30:48;;;;;;;9.73;7.60;;;;;;;18.92;100.00;102086.06;5003944;28;20455;-72
2022/05/18 07:33:14;;;;;;;8.60;7.40;;;;;;;18.82;100.00;102063.97;5005737;28;20820;-72
2022/05/18 07:35:39;;;;;;;11.33;8.40;;;;;;;18.83;100.00;102062.09;5006021;28;20455;-73
2022/05/18 07:38:05;;;;;;;12.10;8.27;;;;;;;18.95;100.00;102082.88;5006745;28;20204;-73
2022/05/18 07:40:33;;;;;;;9.13;7.70;;;;;;;19.15;100.00;102100.88;5006252;28;20661;-72
2022/05/18 07:43:01;;;;;;;12.97;8.43;;;;;;;19.35;100.00;102130.59;5005420;28;20665;-72
2022/05/18 07:45:27;;;;;;;9.60;7.77;;;;;;;19.41;100.00;102130.53;5013221;28;20474;-72
2022/05/18 07:47:55;;;;;;;8.40;7.50;;;;;;;19.02;100.00;102049.38;5003623;28;20483;-72
2022/05/18 07:50:22;;;;;;;10.50;7.43;;;;;;;19.48;100.00;102122.28;5007134;28;20195;-72
2022/05/18 07:52:48;;;;;;;16.23;8.60;;;;;;;18.84;100.00;102009.41;5005466;28;20519;-72
2022/05/18 07:55:14;;;;;;;10.83;7.30;;;;;;;19.37;100.00;102096.66;5004664;28;20442;-72
2022/05/18 07:57:40;;;;;;;15.87;8.17;;;;;;;19.24;100.00;102069.63;5002647;28;20200;-72
2022/05/18 08:00:08;;;;;;;10.07;9.07;;;;;;;19.28;100.00;102059.94;5003397;28;20447;-72
2022/05/18 08:02:34;;;;;;;12.70;8.53;;;;;;;19.28;100.00;102061.84;5002509;28;20189;-72
2022/05/18 08:04:59;;;;;;;11.27;8.00;;;;;;;19.20;100.00;102042.03;5005850;28;20467;-73
2022/05/18 08:07:25;;;;;;;10.70;6.80;;;;;;;19.62;100.00;102120.25;5005165;28;21145;-73
2022/05/18 08:15:20;;;;;;;10.20;9.20;;;;;;;19.88;100.00;102105.50;5007607;28;21009;-73
2022/05/18 08:17:46;;;;;;;13.57;9.53;;;;;;;19.99;100.00;102115.59;5008784;28;20534;-73
2022/05/18 08:20:15;;;;;;;13.43;9.00;;;;;;;19.88;100.00;102075.53;5004358;28;20522;-72
2022/05/18 08:22:41;;;;;;;13.30;9.57;;;;;;;19.20;100.00;101986.81;4998092;28;20527;-72
2022/05/18 08:25:09;;;;;;;10.97;9.07;;;;;;;20.05;100.00;102122.84;5008114;28;21397;-72
2022/05/18 08:27:34;;;;;;;14.23;9.07;;;;;;;19.36;100.00;102009.84;5005085;28;20446;-72
2022/05/18 08:30:05;;;;;;;9.70;8.70;;;;;;;20.13;100.00;102115.41;5004321;28;20448;-72
2022/05/18 08:32:30;;;;;;;15.87;9.20;;;;;;;19.85;100.00;102046.88;5002320;28;20204;-73
2022/05/18 08:34:56;;;;;;;9.87;7.43;;;;;;;20.40;100.00;102100.31;5002707;28;20927;-73
2022/05/18 08:37:22;;;;;;;11.87;7.70;;;;;;;20.21;100.00;102074.22;5007399;28;20181;-73
2022/05/18 08:39:49;;;;;;;11.53;8.83;;;;;;;20.37;100.00;102081.72;5006086;28;20753;-73
2022/05/18 08:42:15;;;;;;;14.23;8.73;;;;;;;20.52;100.00;102108.53;5009328;28;20440;-73
2022/05/18 08:44:40;;;;;;;16.13;7.90;;;;;;;20.13;100.00;102056.31;5007533;28;20440;-73
2022/05/18 08:47:21;;;;;;;17.43;9.50;;;;;;;20.49;100.00;102101.66;5006289;28;20176;-72
2022/05/18 08:50:04;;;;;;;11.23;8.53;;;;;;;20.57;100.00;102105.09;5004851;28;20547;-73
2022/05/18 08:52:39;;;;;;;12.23;9.63;;;;;;;20.62;100.00;102102.50;5012561;28;20434;-73
2022/05/18 08:55:17;;;;;;;15.13;8.70;;;;;;;20.73;100.00;102098.97;5010577;28;20431;-73
2022/05/18 08:57:46;;;;;;;11.47;9.70;;;;;;;20.75;100.00;102084.03;5007159;28;21013;-73
2022/05/18 09:00:35;;;;;;;13.37;9.50;;;;;;;20.98;100.00;102093.28;5008889;28;20439;-72
2022/05/18 09:03:09;;;;;;;9.90;7.30;;;;;;;20.78;100.00;102069.09;5008940;28;20428;-73
2022/05/18 09:05:45;;;;;;;12.40;8.80;;;;;;;20.97;100.00;102092.47;5007864;28;20432;-73
2022/05/18 09:08:17;;;;;;;10.47;8.33;;;;;;;20.66;100.00;102027.38;5008231;28;20471;-73
2022/05/18 09:11:03;;;;;;;11.90;9.20;;;;;;;21.08;100.00;102085.31;5006386;28;20432;-72
2022/05/18 09:13:29;;;;;;;12.00;9.53;;;;;;;21.14;100.00;102081.63;5005225;28;20439;-73
2022/05/18 09:16:07;;;;;;;13.00;8.20;;;;;;;21.16;100.00;102082.22;4994221;28;20447;-72
2022/05/18 09:18:51;;;;;;;10.97;6.43;;;;;;;21.03;100.00;102066.13;5009128;23;20462;-89
2022/05/18 09:21:38;;;;;;;9.07;7.20;;;;;;;21.11;100.00;102075.84;5008834;28;20467;-90
2022/05/18 09:24:12;;;;;;;7.80;5.70;;;;;;;21.30;100.00;102071.91;5010774;28;20435;-89
2022/05/18 09:27:16;;;;;;;8.57;5.73;;;;;;;21.57;100.00;102082.28;5008353;28;20470;-85
2022/05/18 09:29:51;;;;;;;8.70;6.83;;;;;;;21.46;100.00;102086.72;5008347;28;20550;-88
2022/05/18 09:32:38;;;;;;;9.77;6.73;;;;;;;21.55;100.00;102074.38;5020735;28;20448;-87
2022/05/18 09:35:13;;;;;;;10.87;8.90;;;;;;;21.47;100.00;102082.09;5018635;28;20442;-87
2022/05/18 09:37:50;;;;;;;15.73;8.43;;;;;;;21.34;100.00;102047.69;5023565;28;20425;-85
2022/05/18 09:40:22;;;;;;;9.20;6.10;;;;;;;21.63;100.00;102073.94;5028120;28;20475;-89
2022/05/18 09:42:54;;;;;;;9.30;6.97;;;;;;;21.63;100.00;102078.59;5001910;28;20574;-88
2022/05/18 09:45:24;;;;;;;13.37;8.50;;;;;;;21.42;100.00;102020.88;5005895;28;20440;-85
2022/05/18 09:47:58;;;;;;;6.90;5.20;;;;;;;21.83;100.00;102069.97;5006085;28;20449;-88
2022/05/18 09:50:24;;;;;;;9.33;6.73;;;;;;;21.73;100.00;102034.28;5007557;28;20574;-86
2022/05/18 09:52:51;;;;;;;6.60;5.40;;;;;;;21.36;100.00;101990.97;5008865;28;20531;-88
2022/05/18 09:55:22;;;;;;;7.23;5.60;;;;;;;21.85;100.00;102045.97;5011836;28;20266;-89
2022/05/18 09:57:55;;;;;;;6.40;4.80;;;;;;;21.78;100.00;102029.72;5006312;28;20495;-88
2022/05/18 10:00:32;;;;;;;9.70;6.97;;;;;;;22.11;100.00;102074.59;5002688;28;20463;-86
2022/05/18 10:08:53;;;;;;;15.40;7.80;;;;;;;22.12;100.00;102032.50;4952338;28;20462;-84
2022/05/18 10:11:26;;;;;;;13.30;7.10;;;;;;;22.20;100.00;102043.06;5004957;28;20931;-83
2022/05/18 10:14:16;;;;;;;11.93;6.70;;;;;;;22.49;100.00;102071.16;5005260;28;20185;-84
2022/05/18 10:16:49;;;;;;;10.17;6.43;;;;;;;22.56;100.00;102073.72;5008763;28;20973;-86
2022/05/18 10:19:36;;;;;;;8.30;6.83;;;;;;;22.20;100.00;102043.06;5005974;28;20541;-88
2022/05/18 10:22:05;;;;;;;11.30;5.77;;;;;;;22.48;100.00;102068.69;5008437;28;20436;-86
2022/05/18 10:24:40;;;;;;;11.63;8.33;;;;;;;22.49;100.00;102079.34;5004008;28;20440;-85
2022/05/18 10:27:11;;;;;;;8.33;7.23;;;;;;;22.70;100.00;102075.03;5007807;28;20411;-86
2022/05/18 10:29:37;;;;;;;6.00;5.37;;;;;;;22.67;100.00;102066.50;5023510;28;20475;-88
2022/05/18 10:32:09;;;;;;;8.33;5.43;;;;;;;22.71;100.00;102056.72;5011559;28;20494;-85
2022/05/18 10:34:53;;;;;;;9.63;6.90;;;;;;;22.75;100.00;102071.56;5008646;28;20182;-89
2022/05/18 10:37:33;;;;;;;8.40;6.40;;;;;;;22.95;100.00;102071.06;5009365;28;20428;-90
2022/05/18 10:40:11;;;;;;;6.63;5.37;;;;;;;22.98;100.00;102082.31;5007248;28;20527;-87
2022/05/18 10:42:48;;;;;;;7.67;5.97;;;;;;;23.02;100.00;102071.69;5006362;28;20460;-85
2022/05/18 10:45:26;;;;;;;7.77;6.30;;;;;;;23.06;100.00;102074.78;5003267;28;20570;-87
2022/05/18 10:47:53;;;;;;;10.87;6.70;;;;;;;22.92;100.00;102052.38;5009855;28;20451;-85
2022/05/18 10:50:23;;;;;;;10.40;5.93;;;;;;;23.18;100.00;102075.50;5005584;28;20463;-87
2022/05/18 10:52:49;;;;;;;7.70;6.10;;;;;;;23.08;100.00;102086.28;5025313;28;20474;-88
2022/05/18 10:55:18;;;;;;;10.80;6.30;;;;;;;23.18;100.00;102028.97;5007221;28;20431;-86
2022/05/18 10:58:24;;;;;;;7.30;6.30;;;;;;;22.43;100.00;101951.88;5011872;28;20447;-87
2022/05/18 11:01:10;;;;;;;8.33;6.53;;;;;;;23.00;100.00;102033.66;4991992;28;20457;-85
2022/05/18 11:04:00;;;;;;;11.00;7.30;;;;;;;23.25;100.00;102067.91;5011260;28;20420;-88
2022/05/18 11:06:34;;;;;;;9.10;6.73;;;;;;;23.48;100.00;102064.06;5009750;28;20436;-87
2022/05/18 11:09:02;;;;;;;12.40;5.90;;;;;;;23.49;100.00;102064.91;5003454;28;20494;-87
2022/05/18 11:11:52;;;;;;;10.13;7.10;;;;;;;23.34;100.00;102054.59;5003306;28;20467;-86
2022/05/18 11:14:46;;;;;;;9.13;5.80;;;;;;;23.05;100.00;101942.59;5021543;28;20444;-84
2022/05/18 11:17:14;;;;;;;10.43;5.50;;;;;;;23.69;100.00;102051.44;5002832;28;20436;-85
2022/05/18 11:19:48;;;;;;;10.27;6.00;;;;;;;23.61;100.00;102054.66;5018236;28;20839;-82
2022/05/18 11:22:39;;;;;;;11.27;6.20;;;;;;;23.19;100.00;101967.66;5003295;28;20812;-89
2022/05/18 11:25:26;;;;;;;7.33;6.17;;;;;;;23.80;100.00;102049.66;5004435;28;20444;-86
2022/05/18 11:28:10;;;;;;;5.23;3.67;;;;;;;23.94;100.00;102033.66;5018978;28;20441;-88
2022/05/18 11:34:06;;;;;;;7.53;4.47;;;;;;;24.02;100.00;102044.13;4999152;28;20473;-84
2022/05/18 11:36:31;;;;;;;6.07;3.63;;;;;;;24.10;100.00;102032.72;5019284;28;20439;-90
2022/05/18 11:39:21;;;;;;;7.60;4.70;;;;;;;24.05;100.00;102033.47;5011144;28;20468;-91
2022/05/18 11:42:05;;;;;;;4.80;3.13;;;;;;;24.13;100.00;102027.53;5007844;28;20177;-90